createdAt,value
2023-04-15T00:00:10.389Z,7.92
2023-04-15T00:02:38.830Z,7.84
2023-04-15T00:05:07.645Z,7.84
2023-04-15T00:07:35.590Z,7.49
2023-04-15T00:10:04.501Z,7.38
2023-04-15T00:12:32.502Z,7.05
2023-04-15T00:15:00.497Z,7.68
2023-04-15T00:17:29.776Z,7.74
2023-04-15T00:19:59.934Z,7.78
2023-04-15T00:22:28.336Z,7.77
2023-04-15T00:24:56.526Z,7.75
2023-04-15T00:27:24.461Z,7.72
2023-04-15T00:29:52.755Z,7.70
2023-04-15T00:32:20.865Z,7.65
2023-04-15T00:34:50.916Z,7.47
2023-04-15T00:37:18.825Z,7.40
2023-04-15T00:39:46.753Z,7.40
2023-04-15T00:42:14.817Z,7.44
2023-04-15T00:44:42.845Z,7.50
2023-04-15T00:47:11.928Z,7.42
2023-04-15T00:49:39.854Z,7.45
2023-04-15T00:52:09.290Z,7.33
2023-04-15T00:54:37.641Z,7.42
2023-04-15T00:57:06.972Z,7.48
2023-04-15T00:59:35.393Z,7.46
2023-04-15T01:02:03.482Z,7.51
2023-04-15T01:04:32.088Z,7.34
2023-04-15T01:07:00.131Z,7.33
2023-04-15T01:09:29.528Z,7.28
2023-04-15T01:11:57.882Z,7.24
2023-04-15T01:14:27.222Z,7.30
2023-04-15T01:16:55.221Z,7.33
2023-04-15T01:19:23.430Z,7.37
2023-04-15T01:21:51.993Z,7.34
2023-04-15T01:24:21.348Z,7.53
2023-04-15T01:26:51.228Z,7.62
2023-04-15T01:29:19.485Z,7.63
2023-04-15T01:31:52.341Z,7.76
2023-04-15T01:34:21.052Z,7.80
2023-04-15T01:36:49.577Z,7.81
2023-04-15T01:39:17.889Z,7.87
2023-04-15T01:41:45.904Z,7.83
2023-04-15T01:44:15.301Z,7.45
2023-04-15T01:46:43.184Z,7.29
2023-04-15T01:49:11.290Z,7.29
2023-04-15T01:51:39.204Z,7.28
2023-04-15T01:54:07.105Z,7.10
2023-04-15T01:56:35.064Z,6.99
2023-04-15T01:59:03.851Z,6.84
2023-04-15T02:01:33.283Z,6.74
2023-04-15T02:04:01.471Z,6.54
2023-04-15T02:06:29.632Z,6.36
2023-04-15T02:08:57.552Z,6.22
2023-04-15T02:11:25.533Z,6.10
2023-04-15T02:13:53.480Z,6.15
2023-04-15T02:16:21.885Z,6.21
2023-04-15T02:18:52.141Z,6.21
2023-04-15T02:21:20.180Z,6.17
2023-04-15T02:23:48.593Z,6.04
2023-04-15T02:26:17.017Z,5.99
2023-04-15T02:28:44.937Z,6.05
2023-04-15T02:31:13.008Z,6.10
2023-04-15T02:33:41.117Z,6.03
2023-04-15T02:36:12.462Z,5.96
2023-04-15T02:38:42.497Z,5.75
2023-04-15T02:41:11.347Z,5.57
2023-04-15T02:43:40.083Z,5.50
2023-04-15T02:46:08.196Z,5.34
2023-04-15T02:48:36.171Z,5.52
2023-04-15T02:51:15.604Z,5.53
2023-04-15T02:53:43.917Z,5.54
2023-04-15T02:56:12.634Z,5.57
2023-04-15T02:58:41.952Z,5.36
2023-04-15T03:01:09.944Z,5.15
2023-04-15T03:03:38.118Z,5.08
2023-04-15T03:06:06.712Z,5.00
2023-04-15T03:08:36.502Z,4.92
2023-04-15T03:11:04.975Z,4.53
2023-04-15T03:13:32.918Z,4.82
2023-04-15T03:16:01.095Z,4.75
2023-04-15T03:18:29.408Z,4.74
2023-04-15T03:20:57.374Z,4.68
2023-04-15T03:23:25.429Z,4.45
2023-04-15T03:25:56.021Z,4.30
2023-04-15T03:28:24.032Z,4.36
2023-04-15T03:30:51.967Z,4.34
2023-04-15T03:33:19.947Z,4.39
2023-04-15T03:35:48.042Z,4.50
2023-04-15T03:38:15.973Z,4.61
2023-04-15T03:40:44.202Z,4.77
2023-04-15T03:43:13.602Z,4.86
2023-04-15T03:45:41.630Z,4.92
2023-04-15T03:48:17.335Z,5.06
2023-04-15T03:50:46.519Z,5.13
2023-04-15T03:53:14.452Z,5.29
2023-04-15T03:55:42.453Z,5.16
2023-04-15T03:58:12.953Z,5.36
2023-04-15T04:00:42.605Z,5.38
2023-04-15T04:03:10.737Z,5.37
2023-04-15T04:05:41.551Z,5.52
2023-04-15T04:08:09.553Z,6.57
2023-04-15T04:10:37.567Z,7.77
2023-04-15T04:13:05.548Z,8.56
2023-04-15T04:15:33.540Z,9.44
2023-04-15T04:18:03.206Z,10.13
2023-04-15T04:20:32.130Z,10.70
2023-04-15T04:23:00.349Z,11.31
2023-04-15T04:25:28.325Z,11.50
2023-04-15T04:27:56.441Z,11.93
2023-04-15T04:30:24.498Z,11.87
2023-04-15T04:32:52.615Z,11.61
2023-04-15T04:35:23.344Z,11.64
2023-04-15T04:37:52.495Z,11.50
2023-04-15T04:40:20.796Z,11.08
2023-04-15T04:42:48.908Z,10.93
2023-04-15T04:45:16.814Z,10.29
2023-04-15T04:47:44.770Z,10.52
2023-04-15T04:50:13.150Z,10.77
2023-04-15T13:18:18.462Z,20.03
2023-04-15T13:20:47.905Z,19.39
2023-04-15T13:23:16.473Z,19.06
2023-04-15T13:25:44.558Z,18.89
2023-04-15T13:28:13.013Z,19.26
2023-04-15T13:30:41.530Z,19.65
2023-04-15T13:33:09.531Z,19.52
2023-04-15T13:35:37.530Z,19.34
2023-04-15T13:38:06.876Z,19.38
2023-04-15T13:40:34.906Z,19.44
2023-04-15T13:43:03.458Z,19.58
2023-04-15T13:45:31.561Z,19.62
2023-04-15T13:47:59.823Z,19.65
2023-04-15T13:50:28.632Z,19.79
2023-04-15T13:52:56.910Z,19.71
2023-04-15T13:55:27.925Z,19.58
2023-04-15T13:57:57.594Z,18.73
2023-04-15T14:00:25.550Z,19.38
2023-04-15T14:02:53.616Z,19.26
2023-04-15T14:05:21.695Z,19.42
2023-04-15T14:07:50.355Z,19.44
2023-04-15T14:10:18.652Z,19.56
2023-04-15T14:12:47.919Z,19.56
2023-04-15T14:15:15.876Z,19.59
2023-04-15T14:17:43.933Z,19.56
2023-04-15T14:20:13.237Z,19.54
2023-04-15T14:22:42.933Z,19.34
2023-04-15T14:25:23.091Z,19.19
2023-04-15T14:27:56.430Z,19.31
2023-04-15T14:30:24.614Z,19.51
2023-04-15T14:32:52.811Z,19.58
2023-04-15T14:35:20.951Z,19.61
2023-04-15T14:37:49.322Z,19.85
2023-04-15T14:40:17.439Z,19.94
2023-04-15T14:42:45.398Z,19.94
2023-04-15T14:45:15.296Z,19.71
2023-04-15T14:47:43.368Z,19.33
2023-04-15T14:50:12.047Z,18.93
2023-04-15T14:52:40.117Z,18.77
2023-04-15T14:55:10.362Z,19.08
2023-04-15T14:57:38.877Z,18.93
2023-04-15T15:00:08.606Z,19.07
2023-04-15T15:02:40.437Z,18.95
2023-04-15T15:05:09.612Z,18.55
2023-04-15T15:07:37.860Z,18.73
2023-04-15T15:10:06.738Z,18.82
2023-04-15T15:12:35.255Z,18.71
2023-04-15T15:15:12.173Z,18.65
2023-04-15T15:17:45.969Z,18.51
2023-04-15T15:20:13.931Z,18.41
2023-04-15T15:22:41.904Z,18.49
2023-04-15T15:25:10.128Z,18.30
2023-04-15T15:27:38.549Z,18.27
2023-04-15T15:30:07.628Z,17.94
2023-04-15T15:32:35.960Z,17.83
2023-04-15T15:35:06.617Z,18.21
2023-04-15T15:37:34.626Z,18.21
2023-04-15T15:40:03.614Z,18.07
2023-04-15T15:42:33.608Z,18.07
2023-04-15T15:45:02.149Z,18.04
2023-04-15T15:47:30.517Z,18.07
2023-04-15T15:50:00.287Z,18.13
2023-04-15T15:52:29.811Z,18.03
2023-04-15T15:54:57.729Z,17.90
2023-04-15T15:57:25.789Z,17.85
2023-04-15T16:00:04.855Z,17.80
2023-04-15T16:03:04.425Z,17.87
2023-04-15T16:05:26.461Z,17.79
2023-04-15T16:07:56.017Z,17.73
2023-04-15T16:10:23.908Z,17.82
2023-04-15T16:12:52.258Z,17.83
2023-04-15T16:15:20.545Z,17.80
2023-04-15T16:17:48.489Z,17.53
2023-04-15T16:20:16.832Z,17.54
2023-04-15T16:22:45.002Z,17.46
2023-04-15T16:25:14.755Z,17.41
2023-04-15T16:27:57.284Z,17.40
2023-04-15T16:30:27.303Z,17.39
2023-04-15T16:32:55.566Z,17.42
2023-04-15T16:35:23.502Z,17.35
2023-04-15T16:37:51.586Z,17.24
2023-04-15T16:40:20.976Z,17.04
2023-04-15T16:42:49.020Z,17.13
2023-04-15T16:45:17.596Z,17.06
2023-04-15T16:47:45.858Z,17.02
2023-04-15T16:50:14.035Z,16.98
2023-04-15T16:52:42.032Z,16.99
2023-04-15T16:55:10.432Z,16.91
2023-04-15T16:58:01.140Z,16.84
2023-04-15T17:00:28.153Z,16.71
2023-04-15T17:02:56.796Z,16.68
2023-04-15T17:05:24.962Z,16.64
2023-04-15T17:07:53.087Z,16.56
2023-04-15T17:10:23.697Z,16.47
2023-04-15T17:12:53.090Z,16.39
2023-04-15T17:15:21.719Z,16.29
2023-04-15T17:17:49.816Z,16.24
2023-04-15T17:20:18.565Z,16.17
2023-04-15T17:22:47.087Z,15.97
2023-04-15T17:25:15.423Z,16.16
2023-04-15T17:27:43.538Z,16.10
2023-04-15T17:30:13.497Z,16.15
2023-04-15T17:32:42.909Z,16.09
2023-04-15T17:35:11.714Z,16.12
2023-04-15T17:37:39.927Z,16.10
2023-04-15T17:40:09.139Z,16.02
2023-04-15T17:42:38.058Z,16.02
2023-04-15T17:45:06.954Z,16.03
2023-04-15T17:47:38.648Z,16.01
2023-04-15T17:50:07.922Z,15.99
2023-04-15T17:52:36.228Z,15.99
2023-04-15T17:55:04.607Z,15.93
2023-04-15T17:57:32.748Z,15.88
2023-04-15T18:00:00.783Z,15.87
2023-04-15T18:02:29.178Z,15.84
2023-04-15T18:04:58.954Z,15.81
2023-04-15T18:07:27.223Z,14.89
2023-04-15T18:09:56.554Z,15.43
2023-04-15T18:12:24.668Z,15.72
2023-04-15T18:14:52.817Z,15.23
2023-04-15T18:17:21.489Z,15.64
2023-04-15T18:19:50.761Z,15.59
2023-04-15T18:22:20.422Z,15.45
2023-04-15T18:24:49.889Z,15.32
2023-04-15T18:27:18.381Z,15.41
2023-04-15T18:29:46.633Z,15.34
2023-04-15T18:32:14.945Z,15.18
2023-04-15T18:34:44.017Z,15.19
2023-04-15T18:37:12.547Z,14.29
2023-04-15T18:39:42.380Z,15.10
2023-04-15T18:42:10.425Z,15.03
2023-04-15T18:44:38.498Z,14.82
2023-04-15T18:47:06.542Z,14.77
2023-04-15T18:49:35.133Z,14.87
2023-04-15T18:52:04.171Z,14.90
2023-04-15T18:54:32.363Z,14.54
2023-04-15T18:57:01.875Z,14.59
2023-04-15T18:59:30.862Z,14.46
2023-04-15T19:01:59.766Z,14.34
2023-04-15T19:04:29.457Z,14.33
2023-04-15T19:06:59.278Z,14.35
2023-04-15T19:09:27.604Z,14.00
2023-04-15T19:11:57.033Z,14.25
2023-04-15T19:14:26.680Z,14.18
2023-04-15T19:16:55.115Z,13.97
2023-04-15T19:19:23.387Z,14.03
2023-04-15T19:21:52.091Z,13.93
2023-04-15T19:24:20.904Z,13.86
2023-04-15T19:26:51.143Z,13.76
2023-04-15T19:29:19.452Z,13.67
2023-04-15T19:31:49.372Z,13.60
2023-04-15T19:34:17.812Z,13.34
2023-04-15T19:36:46.820Z,12.45
2023-04-15T19:39:15.544Z,13.38
2023-04-15T19:41:44.486Z,13.30
2023-04-15T19:44:14.109Z,13.21
2023-04-15T19:46:44.909Z,13.06
2023-04-15T19:49:14.833Z,12.91
2023-04-15T19:51:42.915Z,12.83
2023-04-15T19:54:10.908Z,13.00
2023-04-15T19:56:38.902Z,12.90
2023-04-15T19:59:07.908Z,12.84
2023-04-15T20:01:36.328Z,12.80
2023-04-15T20:04:04.813Z,12.87
2023-04-15T20:06:34.538Z,12.88
2023-04-15T20:09:02.737Z,12.65
2023-04-15T20:12:09.680Z,12.98
2023-04-15T20:14:19.108Z,13.00
2023-04-15T20:16:47.805Z,13.03
2023-04-15T20:19:15.969Z,13.05
2023-04-15T20:21:45.478Z,13.04
2023-04-15T20:24:13.479Z,13.02
2023-04-15T20:26:41.576Z,13.02
2023-04-15T20:29:09.527Z,12.96
2023-04-15T20:31:37.692Z,12.61
2023-04-15T20:34:06.077Z,12.93
2023-04-15T20:36:34.025Z,12.90
2023-04-15T20:39:03.529Z,12.87
2023-04-15T20:41:32.276Z,12.84
2023-04-15T20:44:00.234Z,12.78
2023-04-15T20:46:28.259Z,13.00
2023-04-15T20:48:56.917Z,12.39
2023-04-15T20:51:24.837Z,12.98
2023-04-15T20:53:52.954Z,13.15
2023-04-15T20:56:22.406Z,13.15
2023-04-15T20:58:50.450Z,13.18
2023-04-15T21:01:18.553Z,13.10
2023-04-15T21:03:46.789Z,13.23
2023-04-15T21:06:14.921Z,13.09
2023-04-15T21:08:42.940Z,13.16
2023-04-15T21:11:11.667Z,12.86
2023-04-15T21:13:41.100Z,12.66
2023-04-15T21:16:09.519Z,13.13
2023-04-15T21:18:37.692Z,13.12
2023-04-15T21:21:06.218Z,13.12
2023-04-15T21:23:36.885Z,12.78
2023-04-15T21:26:05.016Z,13.21
2023-04-15T21:28:33.356Z,13.08
2023-04-15T21:31:02.803Z,13.15
2023-04-15T21:33:30.880Z,13.10
2023-04-15T21:35:59.036Z,13.03
2023-04-15T21:38:29.426Z,12.95
2023-04-15T21:40:58.094Z,12.91
2023-04-15T21:43:26.219Z,12.87
2023-04-15T21:46:22.953Z,12.85
2023-04-15T21:48:43.955Z,12.90
2023-04-15T21:51:12.132Z,12.96
2023-04-15T21:53:40.084Z,13.01
2023-04-15T21:56:09.272Z,12.67
2023-04-15T21:58:37.866Z,12.88
2023-04-15T22:01:06.356Z,12.69
2023-04-15T22:03:35.737Z,12.84
2023-04-15T22:06:05.508Z,12.79
2023-04-15T22:08:44.619Z,12.73
2023-04-15T22:11:23.160Z,12.71
2023-04-15T22:13:51.159Z,12.61
2023-04-15T22:16:19.176Z,12.77
2023-04-15T22:18:47.188Z,12.78
2023-04-15T22:21:16.796Z,12.71
2023-04-15T22:23:47.374Z,12.73
2023-04-15T22:26:15.589Z,12.67
2023-04-15T22:28:43.667Z,12.61
2023-04-15T22:31:11.714Z,12.61
2023-04-15T22:33:40.071Z,12.59
2023-04-15T22:36:07.981Z,12.38
2023-04-15T22:38:38.742Z,12.50
2023-04-15T22:41:06.752Z,12.48
2023-04-15T22:43:34.763Z,12.42
2023-04-15T22:46:02.940Z,12.37
2023-04-15T22:48:31.136Z,12.27
2023-04-15T22:50:59.078Z,12.34
2023-04-15T22:53:27.267Z,12.35
2023-04-15T22:55:56.527Z,12.17
2023-04-15T22:58:24.907Z,12.24
2023-04-15T23:00:53.212Z,11.26
2023-04-15T23:03:21.577Z,12.21
2023-04-15T23:05:49.778Z,12.19
2023-04-15T23:08:17.635Z,12.16
2023-04-15T23:10:46.650Z,12.11
2023-04-15T23:13:15.971Z,12.04
2023-04-15T23:15:46.553Z,11.91
2023-04-15T23:18:14.702Z,12.02
2023-04-15T23:20:42.645Z,12.00
2023-04-15T23:23:10.673Z,11.98
2023-04-15T23:25:38.663Z,11.98
2023-04-15T23:28:07.237Z,12.02
2023-04-15T23:30:36.574Z,12.03
2023-04-15T23:33:04.699Z,11.83
2023-04-15T23:35:32.896Z,11.89
2023-04-15T23:38:00.961Z,12.02
2023-04-15T23:40:28.958Z,12.00
2023-04-15T23:42:56.913Z,11.91
2023-04-15T23:45:25.024Z,11.71
2023-04-15T23:47:54.511Z,11.47
2023-04-15T23:50:22.526Z,11.68
2023-04-15T23:52:50.548Z,11.57
2023-04-15T23:55:18.485Z,11.60
2023-04-15T23:57:46.568Z,11.52
